Search for airport 
image banner adimage banner ad
image banner ad

SNCW - Centro de Lançamento de Alcântara Airport

Situé à Alcântara, Brazil

ICAO - SNCW, IATA -

Données fournies par Airmate  

Information générale

Coordonnées: S2°22'18" W44°23'27"
Élévation : 148 feet MSL.
 
Voir autres Aéroports à Maranhão

Données opérationnelles

Special qualification required
Heure actuelle UTC:
Heure actuelle locale:
Météo à : SBSL - Marechal Cunha Machado ( 29 km )
METAR: SBSL 011800Z 06012KT 9999 BKN020 FEW025TCU BKN100 30/24 Q1004
TAF: TAF SBSL 011520Z 0118/0218 04015KT 8000 BKN022 FEW030TCU TN24/0210Z TX31/0216Z TEMPO 0118/0122 4000 TSRA SCT010 BKN017 FEW025CB BECMG 0123/0201 06008KT 7000 SCT017 PROB40 TEMPO 0202/0210 5000 RA BKN013 FEW025TCU BECMG 0210/0212 09010KT 8000 BKN015 BECMG 0215/0217 05015KT BKN022 FEW030TCU RMK PHN
Voir NOTAMs / SUP AIP / TFR affectant cet aéroport [VIEW]
Fréquences de communication: [VIEW]

Pistes:

Coordonnées de l'aéroport

Adresse: Alcântara Brazil

Vue satellite de SNCW